Main page
METAR-TAF:

METAR-TAF

Airports :

Vienna International Airport

Vienna, Austria

latitude: 48-07N, longitude: 016-34E, elevation: 183 m

Current weather observation

The report was made 18 minutes ago, at 12:50 UTC
Wind 8 kt from the North/Northwest, varying between West and North/Northeast
Temperature 21°C
Humidity 40%
Pressure 1021 hPa
Visibility 10 km or more
no clouds below 1500 m and no cumulonimbus

METAR: LOWW 141250Z 34008KT 280V030 CAVOK 21/07 Q1021 NOSIG

Time: 15:08 (13:08 UTC)

Forecast

The report was made 1 hour and 53 minutes ago, at 11:15 UTC
Forecast valid from 14 at 12 UTC to 15 at 18 UTC
Wind 12 kt from the North
Visibility 10 km or more
no clouds below 1500 m and no cumulonimbus
Becoming
from 14 at 18 UTC to 14 at 21 UTC
Wind 3 kt from variable directions
Temporary
from 15 at 12 UTC to 15 at 16 UTC
Wind 8 kt from the North/Northeast

TAF: LOWW 141115Z 1412/1518 36012KT CAVOK TX27/1515Z TN10/1503Z BECMG 1418/1421 VRB03KT TEMPO 1512/1516 02008KT

Weather observations and forecasts of more than 4000 airports (METAR and TAF reports).

The available stations are represented by yellow and red dots on the map.

Hover mouse over dot to see the name of the station.

Then click to see weather observations and forecasts.

To change the map : click on the green buttons with a black cross to zoom in, on the green button with a dash to zoom out, or on the green arrows for adjacent maps.


METAR-TAF: